createdAt,value
2022-12-13T00:00:42.380Z,99788.46
2022-12-13T00:03:12.802Z,99786.70
2022-12-13T00:05:47.133Z,99779.09
2022-12-13T00:08:17.605Z,99782.45
2022-12-13T00:10:48.293Z,99779.66
2022-12-13T00:13:18.716Z,99783.56
2022-12-13T00:15:58.764Z,99783.23
2022-12-13T00:18:29.809Z,99787.27
2022-12-13T00:21:00.909Z,99785.70
2022-12-13T00:23:31.376Z,99787.98
2022-12-13T00:26:06.655Z,99789.69
2022-12-13T00:28:37.497Z,99786.20
2022-12-13T00:31:51.243Z,99784.68
2022-12-13T00:34:00.255Z,99784.25
2022-12-13T00:36:30.962Z,99785.98
2022-12-13T00:39:01.734Z,99782.71
2022-12-13T00:41:34.201Z,99783.64
2022-12-13T00:44:05.711Z,99783.64
2022-12-13T00:46:36.156Z,99788.38
2022-12-13T00:49:07.181Z,99791.92
2022-12-13T00:51:38.510Z,99788.64
2022-12-13T00:54:08.969Z,99788.26
2022-12-13T00:56:40.025Z,99794.19
2022-12-13T00:59:14.761Z,99794.36
2022-12-13T01:01:45.871Z,99797.06
2022-12-13T01:04:16.580Z,99799.02
2022-12-13T01:06:49.889Z,99797.48
2022-12-13T01:09:22.910Z,99800.84
2022-12-13T01:11:57.490Z,99803.64
2022-12-13T01:14:28.538Z,99805.11
2022-12-13T01:16:59.380Z,99806.08
2022-12-13T01:19:30.696Z,99801.86
2022-12-13T01:22:03.470Z,99801.50
2022-12-13T01:24:33.145Z,99799.40
2022-12-13T01:27:03.612Z,99802.65
2022-12-13T01:29:34.299Z,99800.83
2022-12-13T01:32:05.131Z,99796.93
2022-12-13T01:34:35.677Z,99795.31
2022-12-13T01:37:06.184Z,99794.65
2022-12-13T01:39:38.120Z,99798.86
2022-12-13T01:42:12.214Z,99798.84
2022-12-13T01:45:02.421Z,99802.32
2022-12-13T01:47:41.418Z,99800.05
2022-12-13T01:50:16.437Z,99800.36
2022-12-13T01:52:48.698Z,99799.52
2022-12-13T01:55:23.640Z,99803.61
2022-12-13T01:57:56.988Z,99805.66
2022-12-13T02:00:28.481Z,99806.83
2022-12-13T02:03:01.097Z,99809.70
2022-12-13T02:05:38.077Z,99812.28
2022-12-13T02:08:11.646Z,99815.45
2022-12-13T02:10:43.538Z,99815.13
2022-12-13T02:13:14.361Z,99814.98
2022-12-13T02:15:50.660Z,99817.34
2022-12-13T02:18:36.410Z,99813.13
2022-12-13T02:21:32.104Z,99813.40
2022-12-13T02:24:43.307Z,99813.02
2022-12-13T02:27:43.305Z,99813.39
2022-12-13T02:30:23.401Z,99814.05
2022-12-13T02:33:21.741Z,99816.29
2022-12-13T02:35:58.985Z,99821.52
2022-12-13T02:38:36.336Z,99820.91
2022-12-13T02:41:16.599Z,99816.20
2022-12-13T02:44:01.500Z,99815.48
2022-12-13T02:46:37.271Z,99816.25
2022-12-13T02:49:11.341Z,99819.83
2022-12-13T02:51:42.489Z,99820.97
2022-12-13T02:54:12.900Z,99816.64
2022-12-13T02:56:43.427Z,99816.89
2022-12-13T02:59:15.907Z,99820.27
2022-12-13T03:02:10.143Z,99817.00
2022-12-13T03:05:07.055Z,99814.16
2022-12-13T03:07:46.055Z,99819.48
2022-12-13T03:10:22.329Z,99816.88
2022-12-13T03:13:14.159Z,99818.59
2022-12-13T03:15:46.230Z,99816.40
2022-12-13T03:18:19.805Z,99818.27
2022-12-13T03:20:51.689Z,99819.76
2022-12-13T03:23:23.643Z,99820.19
2022-12-13T03:25:56.866Z,99823.57
2022-12-13T03:28:27.359Z,99824.85
2022-12-13T03:30:57.918Z,99820.45
2022-12-13T03:33:28.670Z,99826.59
2022-12-13T03:35:59.895Z,99823.38
2022-12-13T03:38:31.330Z,99825.92
2022-12-13T03:41:04.122Z,99825.30
2022-12-13T03:43:33.224Z,99827.85
2022-12-13T03:46:04.128Z,99830.29
2022-12-13T03:48:34.786Z,99829.41
2022-12-13T03:51:06.085Z,99831.36
2022-12-13T03:53:36.656Z,99832.98
2022-12-13T03:56:09.202Z,99826.11
2022-12-13T03:58:42.199Z,99825.77
2022-12-13T04:01:15.321Z,99827.98
2022-12-13T04:03:47.805Z,99828.55
2022-12-13T04:06:22.140Z,99824.91
2022-12-13T04:08:53.609Z,99828.34
2022-12-13T04:11:43.282Z,99828.13
2022-12-13T04:14:22.403Z,99827.13
2022-12-13T04:16:53.705Z,99829.39
2022-12-13T04:19:24.370Z,99833.00
2022-12-13T04:21:56.010Z,99834.26
2022-12-13T04:24:31.796Z,99833.41
2022-12-13T04:27:03.218Z,99833.36
2022-12-13T04:29:35.136Z,99834.20
2022-12-13T04:32:26.463Z,99831.92
2022-12-13T04:35:01.105Z,99832.98
2022-12-13T04:37:32.674Z,99830.59
2022-12-13T04:40:03.618Z,99824.45
2022-12-13T04:42:34.146Z,99826.52
2022-12-13T04:45:04.999Z,99826.11
2022-12-13T04:47:35.443Z,99826.67
2022-12-13T04:50:07.053Z,99825.72
2022-12-13T04:52:37.468Z,99827.80
2022-12-13T04:55:09.897Z,99829.73
2022-12-13T04:57:41.811Z,99830.55
2022-12-13T05:00:15.473Z,99831.79
2022-12-13T05:02:46.104Z,99828.33
2022-12-13T05:05:17.728Z,99829.83
2022-12-13T05:07:48.937Z,99831.45
2022-12-13T05:10:33.870Z,99834.58
2022-12-13T05:13:08.745Z,99835.95
2022-12-13T05:15:39.191Z,99837.75
2022-12-13T05:22:22.453Z,99834.77
2022-12-13T05:29:11.916Z,99834.08
2022-12-13T05:36:02.402Z,99834.67
2022-12-13T05:43:01.472Z,99831.55
2022-12-13T05:45:33.573Z,99839.27
2022-12-13T05:48:04.302Z,99837.04
2022-12-13T05:50:35.549Z,99840.30
2022-12-13T05:53:07.512Z,99835.48
2022-12-13T05:55:40.045Z,99833.95
2022-12-13T06:02:23.352Z,99834.66
2022-12-13T06:04:53.938Z,99836.35
2022-12-13T06:07:24.400Z,99835.93
2022-12-13T06:09:55.345Z,99840.72
2022-12-13T06:12:43.155Z,99837.31
2022-12-13T06:19:28.298Z,99837.58
2022-12-13T06:21:58.824Z,99838.86
2022-12-13T06:24:29.327Z,99843.70
2022-12-13T06:27:00.274Z,99845.76
2022-12-13T06:29:30.719Z,99846.31
2022-12-13T06:32:03.732Z,99847.53
2022-12-13T06:34:36.803Z,99844.11
2022-12-13T06:37:07.135Z,99848.08
2022-12-13T06:39:37.833Z,99848.39
2022-12-13T06:42:21.508Z,99851.30
2022-12-13T06:44:56.216Z,99855.27
2022-12-13T06:47:31.287Z,99858.17
2022-12-13T06:50:05.568Z,99858.59
2022-12-13T06:52:36.283Z,99863.65
2022-12-13T06:55:08.099Z,99865.19
2022-12-13T06:57:38.646Z,99865.85
2022-12-13T07:00:22.275Z,99867.73
2022-12-13T07:02:56.720Z,99866.27
2022-12-13T07:05:28.261Z,99869.15
2022-12-13T07:07:58.790Z,99868.60
2022-12-13T07:10:30.914Z,99867.39
2022-12-13T07:13:01.338Z,99871.70
2022-12-13T07:15:33.890Z,99877.77
2022-12-13T07:18:04.675Z,99879.59
2022-12-13T07:20:35.128Z,99885.02
2022-12-13T07:23:05.693Z,99886.21
2022-12-13T07:25:36.225Z,99886.11
2022-12-13T07:28:08.719Z,99890.58
2022-12-13T07:30:41.999Z,99889.86
2022-12-13T07:33:12.733Z,99892.61
2022-12-13T07:36:00.568Z,99891.53
2022-12-13T07:38:31.104Z,99889.27
2022-12-13T07:41:01.535Z,99892.63
2022-12-13T07:43:32.243Z,99893.84
2022-12-13T07:46:05.191Z,99895.79
2022-12-13T07:48:35.993Z,99896.22
2022-12-13T07:51:09.016Z,99896.86
2022-12-13T07:53:40.112Z,99893.67
2022-12-13T07:56:12.928Z,99893.64
2022-12-13T07:58:47.525Z,99894.80
2022-12-13T08:01:18.558Z,99899.55
2022-12-13T08:03:50.014Z,99897.02
2022-12-13T08:06:20.493Z,99900.45
2022-12-13T08:08:51.774Z,99899.80
2022-12-13T08:11:22.319Z,99899.23
2022-12-13T08:13:54.314Z,99898.10
2022-12-13T08:16:27.679Z,99898.29
2022-12-13T08:19:04.031Z,99899.17
2022-12-13T08:21:57.829Z,99899.81
2022-12-13T08:24:30.799Z,99899.02
2022-12-13T08:27:03.433Z,99899.77
2022-12-13T08:29:35.969Z,99897.24
2022-12-13T08:32:09.894Z,99897.85
2022-12-13T08:34:41.405Z,99903.69
2022-12-13T08:37:12.583Z,99906.98
2022-12-13T08:39:44.649Z,99905.05
2022-12-13T08:42:19.411Z,99907.09
2022-12-13T08:44:52.698Z,99911.02
2022-12-13T08:47:26.754Z,99914.44
2022-12-13T08:50:02.377Z,99920.80
2022-12-13T08:52:39.540Z,99908.08
2022-12-13T08:55:13.343Z,99915.09
2022-12-13T08:57:44.891Z,99916.73
2022-12-13T09:00:19.159Z,99916.89
2022-12-13T09:02:49.662Z,99922.14
2022-12-13T09:05:34.269Z,99920.54
2022-12-13T09:08:23.166Z,99921.92
2022-12-13T09:11:10.532Z,99919.83
2022-12-13T09:13:44.044Z,99926.64
2022-12-13T09:16:23.232Z,99923.45
2022-12-13T09:18:56.051Z,99929.69
2022-12-13T09:21:31.352Z,99925.79
2022-12-13T09:24:02.784Z,99923.36
2022-12-13T09:26:37.860Z,99924.05
2022-12-13T09:29:11.094Z,99923.86
2022-12-13T09:31:42.327Z,99924.61
2022-12-13T09:34:13.100Z,99928.20
2022-12-13T09:36:43.704Z,99919.66
2022-12-13T09:39:14.122Z,99920.05
2022-12-13T09:41:47.442Z,99917.96
2022-12-13T09:44:32.523Z,99934.06
2022-12-13T09:47:13.486Z,99929.23
2022-12-13T09:49:51.774Z,99922.27
2022-12-13T09:52:26.610Z,99919.31
2022-12-13T09:55:11.773Z,99918.74
2022-12-13T09:57:42.221Z,99919.11
2022-12-13T10:00:18.197Z,99918.85
2022-12-13T10:02:51.237Z,99917.14
2022-12-13T10:05:34.080Z,99925.86
2022-12-13T10:08:14.211Z,99928.20
2022-12-13T10:10:45.536Z,99925.25
2022-12-13T10:13:21.711Z,99927.15
2022-12-13T10:15:55.921Z,99920.51
2022-12-13T10:18:34.066Z,99918.70
2022-12-13T10:21:08.906Z,99924.91
2022-12-13T10:24:15.248Z,99916.24
2022-12-13T10:26:38.780Z,99921.84
2022-12-13T10:29:10.098Z,99917.54
2022-12-13T10:31:46.837Z,99916.66
2022-12-13T10:34:24.524Z,99914.20
2022-12-13T10:36:59.508Z,99910.77
2022-12-13T10:39:44.354Z,99911.50
2022-12-13T10:42:23.544Z,99911.98
2022-12-13T10:45:15.177Z,99916.63
2022-12-13T10:47:46.972Z,99911.73
2022-12-13T10:50:29.779Z,99910.98
2022-12-13T10:53:01.592Z,99909.78
2022-12-13T10:55:34.553Z,99911.02
2022-12-13T10:58:09.547Z,99905.80
2022-12-13T11:00:45.058Z,99907.81
2022-12-13T11:03:32.513Z,99905.36
2022-12-13T11:06:13.888Z,99899.95
2022-12-13T11:08:44.763Z,99898.48
2022-12-13T11:11:18.673Z,99901.42
2022-12-13T11:13:53.541Z,99898.54
2022-12-13T11:16:28.913Z,99895.45
2022-12-13T11:19:01.621Z,99895.50
2022-12-13T11:21:32.455Z,99899.19
2022-12-13T11:24:07.809Z,99898.57
2022-12-13T11:26:42.940Z,99896.24
2022-12-13T11:29:49.325Z,99896.08
2022-12-13T11:32:33.065Z,99888.02
2022-12-13T11:35:13.837Z,99890.23
2022-12-13T11:37:52.145Z,99889.34
2022-12-13T11:40:28.056Z,99891.86
2022-12-13T11:43:03.343Z,99892.20
2022-12-13T11:45:40.095Z,99892.98
2022-12-13T11:48:20.997Z,99890.70
2022-12-13T11:50:55.862Z,99893.91
2022-12-13T11:53:36.389Z,99893.67
2022-12-13T11:56:16.441Z,99894.36
2022-12-13T11:59:03.142Z,99894.45
2022-12-13T12:01:42.376Z,99892.53
2022-12-13T12:04:22.850Z,99891.13
2022-12-13T12:07:08.274Z,99891.36
2022-12-13T12:09:55.753Z,99889.06
2022-12-13T12:12:32.645Z,99891.71
2022-12-13T12:15:16.374Z,99900.58
2022-12-13T12:17:47.731Z,99897.58
2022-12-13T12:20:24.372Z,99898.14
2022-12-13T12:23:06.087Z,99900.59
2022-12-13T12:25:45.115Z,99904.66
2022-12-13T12:28:24.337Z,99906.04
2022-12-13T12:31:04.773Z,99900.92
2022-12-13T12:33:45.966Z,99905.26
2022-12-13T12:36:39.487Z,99905.44
2022-12-13T12:39:36.299Z,99912.69
2022-12-13T12:42:21.683Z,99909.79
2022-12-13T12:45:06.008Z,99909.70
2022-12-13T12:48:46.382Z,99906.20
2022-12-13T12:50:49.944Z,99903.56
2022-12-13T12:53:36.608Z,99903.09
2022-12-13T12:56:20.805Z,99902.85
2022-12-13T12:59:02.245Z,99906.44
2022-12-13T13:01:46.905Z,99906.27
2022-12-13T13:04:22.252Z,99908.97
2022-12-13T13:07:01.449Z,99911.40
2022-12-13T13:09:33.234Z,99912.11
2022-12-13T13:12:28.622Z,99909.02
2022-12-13T13:14:57.588Z,99911.62
2022-12-13T13:17:48.645Z,99910.25
2022-12-13T13:20:25.114Z,99913.71
2022-12-13T13:23:38.933Z,99913.23
2022-12-13T13:26:16.433Z,99913.44
2022-12-13T13:28:45.822Z,99912.13
2022-12-13T13:31:16.435Z,99914.21
2022-12-13T13:33:49.656Z,99915.81
2022-12-13T13:36:48.067Z,99916.49
2022-12-13T13:39:38.198Z,99920.20
2022-12-13T13:42:22.950Z,99924.34
2022-12-13T13:45:23.696Z,99925.52
2022-12-13T13:48:14.405Z,99930.02
2022-12-13T13:54:37.444Z,99937.30
2022-12-13T13:58:11.285Z,99942.20
2022-12-13T14:00:49.686Z,99939.89
2022-12-13T14:03:52.676Z,99940.41
2022-12-13T14:06:54.030Z,99939.52
2022-12-13T14:10:01.524Z,99942.81
2022-12-13T14:13:19.954Z,99944.15
2022-12-13T14:16:21.250Z,99949.96
2022-12-13T14:19:24.285Z,99948.05
2022-12-13T14:22:08.628Z,99948.45
2022-12-13T14:24:48.022Z,99950.86
2022-12-13T14:27:28.372Z,99950.79
2022-12-13T14:30:00.950Z,99950.84
2022-12-13T14:32:40.788Z,99951.95
2022-12-13T14:35:27.016Z,99949.30
2022-12-13T14:38:03.550Z,99951.33
2022-12-13T14:40:36.213Z,99953.15
2022-12-13T14:43:07.079Z,99955.76
2022-12-13T14:45:39.351Z,99959.23
2022-12-13T14:48:28.091Z,99957.22
2022-12-13T14:50:59.869Z,99960.56
2022-12-13T14:53:37.487Z,99960.73
2022-12-13T14:56:28.213Z,99958.63
2022-12-13T14:59:01.253Z,99954.56
2022-12-13T15:01:35.475Z,99949.54
2022-12-13T15:04:30.763Z,99949.62
2022-12-13T15:07:06.638Z,99947.16
2022-12-13T15:09:41.354Z,99945.42
2022-12-13T15:12:24.395Z,99943.73
2022-12-13T15:15:01.370Z,99944.22
2022-12-13T15:17:34.868Z,99946.67
2022-12-13T15:20:31.252Z,99947.09
2022-12-13T15:23:24.003Z,99947.88
2022-12-13T15:26:01.295Z,99946.39
2022-12-13T15:28:35.969Z,99950.21
2022-12-13T15:31:08.059Z,99953.98
2022-12-13T15:33:48.108Z,99954.15
2022-12-13T15:36:21.597Z,99962.21
2022-12-13T15:39:02.669Z,99963.17
2022-12-13T15:41:42.820Z,99963.61
2022-12-13T15:44:22.054Z,99960.70
2022-12-13T15:46:56.921Z,99958.65
2022-12-13T15:49:31.747Z,99959.88
2022-12-13T15:52:05.054Z,99959.15
2022-12-13T15:54:35.754Z,99957.70
2022-12-13T15:57:17.640Z,99960.50
2022-12-13T15:59:48.601Z,99959.52
2022-12-13T16:02:22.172Z,99960.55
2022-12-13T16:04:53.334Z,99964.23
2022-12-13T16:07:28.548Z,99963.54
2022-12-13T16:10:00.535Z,99961.98
2022-12-13T16:16:50.877Z,99964.44
2022-12-13T16:19:23.038Z,99963.67
2022-12-13T16:21:53.476Z,99961.98
2022-12-13T16:24:24.079Z,99962.42
2022-12-13T16:26:54.596Z,99964.34
2022-12-13T16:29:25.153Z,99967.96
2022-12-13T16:32:01.402Z,99974.67
2022-12-13T16:34:32.344Z,99976.00
2022-12-13T16:37:02.827Z,99971.61
2022-12-13T16:39:39.369Z,99972.47
2022-12-13T16:47:11.874Z,99977.96
2022-12-13T16:53:30.740Z,99972.75
2022-12-13T16:56:02.022Z,99970.75
2022-12-13T16:58:32.592Z,99973.69
2022-12-13T17:01:03.267Z,99975.04
2022-12-13T17:07:55.152Z,99977.98
2022-12-13T17:10:26.490Z,99982.61
2022-12-13T17:12:57.308Z,99983.34
2022-12-13T17:15:27.732Z,99983.59
2022-12-13T17:17:58.768Z,99980.72
2022-12-13T17:20:29.374Z,99982.23
2022-12-13T17:23:01.147Z,99981.77
2022-12-13T17:25:31.625Z,99984.66
2022-12-13T17:28:04.366Z,99986.27
2022-12-13T17:30:36.033Z,99985.09
2022-12-13T17:33:09.826Z,99978.29
2022-12-13T17:35:42.948Z,99980.12
2022-12-13T17:38:15.179Z,99982.20
2022-12-13T17:40:54.478Z,99983.73
2022-12-13T17:43:33.746Z,99980.45
2022-12-13T17:46:07.233Z,99986.80
2022-12-13T17:48:40.787Z,99987.58
2022-12-13T17:51:14.027Z,99993.66
2022-12-13T17:53:45.528Z,99992.94
2022-12-13T17:56:17.820Z,99990.92
2022-12-13T17:58:48.681Z,99988.20
2022-12-13T18:01:21.485Z,99986.56
2022-12-13T18:03:55.725Z,99991.58
2022-12-13T18:06:26.790Z,99991.02
2022-12-13T18:08:57.264Z,99991.20
2022-12-13T18:11:35.345Z,99991.91
2022-12-13T18:14:08.050Z,99994.39
2022-12-13T18:16:39.424Z,99996.83
2022-12-13T18:19:12.615Z,100002.95
2022-12-13T18:21:44.259Z,100001.30
2022-12-13T18:24:14.941Z,100003.59
2022-12-13T18:26:45.534Z,100002.89
2022-12-13T18:29:15.972Z,100004.02
2022-12-13T18:31:46.415Z,100003.60
2022-12-13T18:38:38.901Z,100005.97
2022-12-13T18:45:21.765Z,100002.78
2022-12-13T18:52:13.116Z,100001.71
2022-12-13T18:54:46.037Z,99999.19
2022-12-13T18:57:25.371Z,100000.73
2022-12-13T18:59:55.871Z,100000.64
2022-12-13T19:02:31.020Z,100003.75
2022-12-13T19:05:05.052Z,99998.48
2022-12-13T19:07:35.530Z,99995.06
2022-12-13T19:10:07.042Z,99996.63
2022-12-13T19:12:37.565Z,99999.41
2022-12-13T19:15:09.920Z,100002.30
2022-12-13T19:17:40.357Z,100004.63
2022-12-13T19:20:12.484Z,100002.73
2022-12-13T19:22:42.971Z,100002.86
2022-12-13T19:25:13.710Z,100000.38
2022-12-13T19:27:46.762Z,100000.15
2022-12-13T19:30:22.638Z,100005.18
2022-12-13T19:32:53.167Z,100002.21
2022-12-13T19:35:23.646Z,99997.91
2022-12-13T19:37:54.587Z,99995.40
2022-12-13T19:40:25.157Z,99996.64
2022-12-13T19:42:55.618Z,99997.16
2022-12-13T19:45:26.078Z,99994.89
2022-12-13T19:47:56.582Z,99989.21
2022-12-13T19:50:27.052Z,99988.59
2022-12-13T19:52:57.535Z,99991.79
2022-12-13T20:04:08.707Z,99993.95
2022-12-13T20:06:39.135Z,99995.19
2022-12-13T20:09:09.640Z,99996.50
2022-12-13T20:11:40.418Z,99993.95
2022-12-13T20:14:11.106Z,100000.36
2022-12-13T20:16:43.755Z,100004.79
2022-12-13T20:19:14.896Z,100004.73
2022-12-13T20:21:46.355Z,100008.44
2022-12-13T20:24:16.827Z,100007.48
2022-12-13T20:31:11.051Z,100015.52
2022-12-13T20:33:42.820Z,100017.69
2022-12-13T20:36:26.248Z,100020.16
2022-12-13T20:38:58.852Z,100016.38
2022-12-13T20:41:31.685Z,100015.98
2022-12-13T20:44:03.447Z,100012.80
2022-12-13T20:46:34.353Z,100013.65
2022-12-13T20:49:07.273Z,100012.63
2022-12-13T20:51:38.986Z,100011.48
2022-12-13T20:54:10.634Z,100014.45
2022-12-13T20:56:41.741Z,100012.80
2022-12-13T20:59:14.883Z,100013.38
2022-12-13T21:01:49.180Z,100011.98
2022-12-13T21:04:20.918Z,100006.15
2022-12-13T21:06:51.350Z,100003.39
2022-12-13T21:09:21.856Z,99998.46
2022-12-13T21:11:52.859Z,99996.46
2022-12-13T21:14:25.662Z,100001.44
2022-12-13T21:16:57.700Z,100003.36
2022-12-13T21:19:33.192Z,100008.30
2022-12-13T21:22:08.382Z,100003.89
2022-12-13T21:24:38.922Z,100003.92
2022-12-13T21:27:09.951Z,100001.18
2022-12-13T21:29:40.413Z,99999.63
2022-12-13T21:32:10.949Z,99997.27
2022-12-13T21:34:41.474Z,99998.55
2022-12-13T21:37:11.890Z,99998.58
2022-12-13T21:39:42.395Z,99996.62
2022-12-13T21:42:13.942Z,99994.35
2022-12-13T21:44:44.407Z,99994.11
2022-12-13T21:47:14.858Z,99989.80
2022-12-13T21:49:48.682Z,99989.52
2022-12-13T21:52:20.367Z,99986.20
2022-12-13T21:54:52.842Z,99978.98
2022-12-13T21:57:48.511Z,99981.05
2022-12-13T22:00:19.677Z,99985.13
2022-12-13T22:02:50.154Z,99988.24
2022-12-13T22:05:21.973Z,99988.79
2022-12-13T22:07:52.403Z,99988.30
2022-12-13T22:10:22.960Z,99986.24
2022-12-13T22:12:53.425Z,99987.64
2022-12-13T22:15:23.926Z,99986.32
2022-12-13T22:17:54.362Z,99985.82
2022-12-13T22:20:24.845Z,99984.31
2022-12-13T22:22:56.422Z,99988.02
2022-12-13T22:25:27.597Z,99987.58
2022-12-13T22:27:58.033Z,99986.64
2022-12-13T22:30:28.481Z,99983.95
2022-12-13T22:32:58.934Z,99980.64
2022-12-13T22:35:29.362Z,99978.30
2022-12-13T22:38:01.695Z,99970.85
2022-12-13T22:40:32.313Z,99967.38
2022-12-13T22:43:02.734Z,99965.22
2022-12-13T22:45:33.231Z,99964.67
2022-12-13T22:48:03.871Z,99966.59
2022-12-13T22:50:35.310Z,99964.30
2022-12-13T22:53:05.815Z,99959.19
2022-12-13T22:55:36.490Z,99958.05
2022-12-13T22:58:08.349Z,99959.19
2022-12-13T23:00:38.971Z,99957.74
2022-12-13T23:03:09.474Z,99946.46
2022-12-13T23:05:40.139Z,99947.41
2022-12-13T23:08:10.559Z,99947.24
2022-12-13T23:10:58.599Z,99943.90
2022-12-13T23:13:29.029Z,99936.98
2022-12-13T23:15:59.503Z,99931.02
2022-12-13T23:18:30.620Z,99933.33
2022-12-13T23:21:01.387Z,99929.12
2022-12-13T23:23:34.022Z,99923.53
2022-12-13T23:26:15.079Z,99925.30
2022-12-13T23:28:46.744Z,99924.98
2022-12-13T23:31:18.310Z,99918.31
2022-12-13T23:33:48.826Z,99915.23
2022-12-13T23:36:20.577Z,99909.95
2022-12-13T23:38:51.709Z,99908.52
2022-12-13T23:41:24.330Z,99904.69
2022-12-13T23:43:57.313Z,99895.08
2022-12-13T23:46:30.458Z,99893.63
2022-12-13T23:49:02.169Z,99895.84
2022-12-13T23:51:33.460Z,99897.02
2022-12-13T23:54:03.913Z,99901.47
2022-12-13T23:56:34.545Z,99893.92
2022-12-13T23:59:05.089Z,99887.36
